EBBE

Beauvechain Air Base Airport

Beauvechain, Belgium
METAR EBBE 191655Z AUTO 23011KT 9999 NCD 24/14 Q1019 BLU
Observed Flight Rules
Aug-19 @ 16:55 UTC (18 minutes ago) Visual Flight Rules
Wind Visibility Clouds
230° at 11 knots 10,000+ meters
  • Clear skies
Temperatures Readings
Current 24°C / 75°F
Dewpoint 14°C / 57°F
Humidity 54%
Altimeter 30.09" Hg
Pressure 1019 hPa
Elevation 127
METAR EBBE 191655Z AUTO 23011KT 9999 NCD 24/14 Q1019 BLU
Observed Flight Rules
Aug-19 @ 16:55 UTC
(18 minutes ago)
VFR
Wind Visibility
230° at 11 knots 10,000+ meters
Clouds
  • Clear skies
Temperature Dewpoint
24°C / 75°F 14°C / 57°F
Humidity Altimeter Pressure
54% 30.09" Hg 1019 hPa